This is the latest recevied weather packets stored in our database for station/object KB1FFS. If no packets are shown the sender has not sent any weather packets the latest 10 day(s).
| Time | Temp. | Humidity | Pressure | Rain* | Wind** | Luminosity | Snow |
|---|---|---|---|---|---|---|---|
| 1777060365 | 33.89° C | 43% | 1005.5 hPa | 0 mm | - | 600 W/m² | - |
| 1777060062 | 33.89° C | 43% | 1005.5 hPa | 0 mm | - | 918 W/m² | - |
| 1777059757 | 34.44° C | 42% | 1005.4 hPa | 0 mm | - | 612 W/m² | - |
| 1777059455 | 34.44° C | 40% | 1005.5 hPa | 0 mm | - | 900 W/m² | - |
| 1777059151 | 35° C | 44% | 1005.6 hPa | 0 mm | - | 896 W/m² | - |
| 1777058847 | 34.44° C | 45% | 1005.6 hPa | 0 mm | - | 897 W/m² | - |
| 1777058541 | 33.89° C | 46% | 1005.6 hPa | 0 mm | - | 857 W/m² | - |
| 1777058239 | 33.89° C | 45% | 1005.9 hPa | 0 mm | - | 974 W/m² | - |
| 1777057935 | 33.89° C | 48% | 1006 hPa | 0 mm | - | 932 W/m² | - |
| 1777057629 | 33.89° C | 47% | 1005.9 hPa | 0 mm | - | 941 W/m² | - |
| 1777057325 | 33.33° C | 46% | 1006.1 hPa | 0 mm | - | 945 W/m² | - |
| 1777057021 | 32.78° C | 49% | 1006.2 hPa | 0 mm | - | 1013 W/m² | - |
| 1777056720 | 32.78° C | 48% | 1006.1 hPa | 0 mm | - | 1053 W/m² | - |
| 1777056416 | 33.89° C | 47% | 1006 hPa | 0 mm | - | 760 W/m² | - |
| 1777056112 | 32.78° C | 48% | 1006.1 hPa | 0 mm | - | 953 W/m² | - |
| 1777055808 | 33.33° C | 48% | 1006.1 hPa | 0 mm | - | 227 W/m² | - |
| 1777055505 | 33.33° C | 47% | 1006.2 hPa | 0 mm | - | 962 W/m² | - |
| 1777055199 | 33.33° C | 44% | 1006.4 hPa | 0 mm | - | 872 W/m² | - |
| 1777054898 | 32.78° C | 51% | 1006.3 hPa | 0 mm | - | 966 W/m² | - |
| 1777054595 | 33.33° C | 49% | 1006.3 hPa | 0 mm | - | 399 W/m² | - |
| 1777054292 | 32.78° C | 49% | 1006.3 hPa | 0 mm | - | 826 W/m² | - |
| 1777053991 | 32.78° C | 49% | 1006.2 hPa | 0 mm | - | 869 W/m² | - |
| 1777053686 | 32.22° C | 52% | 1006.4 hPa | 0 mm | - | 1009 W/m² | - |
| 1777053386 | 31.67° C | 54% | 1006.4 hPa | 0 mm | - | 973 W/m² | - |
| 1777053081 | 32.22° C | 52% | 1006.5 hPa | 0 mm | - | 724 W/m² | - |
* Rain latest hour (hover to see other rain measurements)
** Current wind speed in m/s (hover to see current wind gust speed)